sensor_id;sensor_type;location;lat;lon;timestamp;P1;durP1;ratioP1;P2;durP2;ratioP2
33593;SDS011;19920;52.242;20.940;2023-11-22T00:00:07;11.10;;;6.45;;
33593;SDS011;19920;52.242;20.940;2023-11-22T00:02:33;12.07;;;7.55;;
33593;SDS011;19920;52.242;20.940;2023-11-22T00:04:59;10.68;;;6.32;;
33593;SDS011;19920;52.242;20.940;2023-11-22T00:07:25;11.63;;;6.43;;
33593;SDS011;19920;52.242;20.940;2023-11-22T00:09:53;11.25;;;6.38;;
33593;SDS011;19920;52.242;20.940;2023-11-22T00:12:19;10.77;;;6.65;;
33593;SDS011;19920;52.242;20.940;2023-11-22T00:14:45;10.52;;;6.60;;
33593;SDS011;19920;52.242;20.940;2023-11-22T00:17:12;10.60;;;6.20;;
33593;SDS011;19920;52.242;20.940;2023-11-22T00:19:37;11.65;;;5.90;;
33593;SDS011;19920;52.242;20.940;2023-11-22T00:22:03;12.40;;;6.60;;
33593;SDS011;19920;52.242;20.940;2023-11-22T00:24:36;10.93;;;5.57;;
33593;SDS011;19920;52.242;20.940;2023-11-22T00:27:02;10.77;;;5.32;;
33593;SDS011;19920;52.242;20.940;2023-11-22T00:29:28;9.13;;;5.32;;
33593;SDS011;19920;52.242;20.940;2023-11-22T00:31:53;10.63;;;5.25;;
33593;SDS011;19920;52.242;20.940;2023-11-22T00:34:19;9.90;;;5.50;;
33593;SDS011;19920;52.242;20.940;2023-11-22T00:36:44;12.10;;;5.45;;
33593;SDS011;19920;52.242;20.940;2023-11-22T00:39:10;10.77;;;5.13;;
33593;SDS011;19920;52.242;20.940;2023-11-22T00:41:38;9.18;;;5.32;;
33593;SDS011;19920;52.242;20.940;2023-11-22T00:44:04;10.80;;;5.00;;
33593;SDS011;19920;52.242;20.940;2023-11-22T00:46:31;9.32;;;5.38;;
33593;SDS011;19920;52.242;20.940;2023-11-22T00:48:57;10.57;;;5.18;;
33593;SDS011;19920;52.242;20.940;2023-11-22T00:51:23;7.68;;;4.68;;
33593;SDS011;19920;52.242;20.940;2023-11-22T00:53:48;9.48;;;5.03;;
33593;SDS011;19920;52.242;20.940;2023-11-22T00:56:15;7.68;;;4.93;;
33593;SDS011;19920;52.242;20.940;2023-11-22T00:58:40;8.27;;;5.00;;
33593;SDS011;19920;52.242;20.940;2023-11-22T01:01:06;10.48;;;5.63;;
33593;SDS011;19920;52.242;20.940;2023-11-22T01:03:32;11.23;;;5.88;;
33593;SDS011;19920;52.242;20.940;2023-11-22T01:05:57;11.70;;;5.88;;
33593;SDS011;19920;52.242;20.940;2023-11-22T01:08:23;9.77;;;6.10;;
33593;SDS011;19920;52.242;20.940;2023-11-22T01:10:48;10.88;;;6.25;;
33593;SDS011;19920;52.242;20.940;2023-11-22T01:13:14;13.52;;;6.72;;
33593;SDS011;19920;52.242;20.940;2023-11-22T01:15:40;13.93;;;6.43;;
33593;SDS011;19920;52.242;20.940;2023-11-22T01:18:06;11.85;;;6.38;;
33593;SDS011;19920;52.242;20.940;2023-11-22T01:20:32;10.00;;;5.97;;
33593;SDS011;19920;52.242;20.940;2023-11-22T01:22:58;10.13;;;5.65;;
33593;SDS011;19920;52.242;20.940;2023-11-22T01:25:23;9.40;;;5.88;;
33593;SDS011;19920;52.242;20.940;2023-11-22T01:27:49;10.35;;;5.78;;
33593;SDS011;19920;52.242;20.940;2023-11-22T01:30:14;9.88;;;5.63;;
33593;SDS011;19920;52.242;20.940;2023-11-22T01:32:40;11.43;;;5.80;;
33593;SDS011;19920;52.242;20.940;2023-11-22T01:35:05;8.60;;;5.72;;
33593;SDS011;19920;52.242;20.940;2023-11-22T01:37:31;8.38;;;4.93;;
33593;SDS011;19920;52.242;20.940;2023-11-22T01:39:57;9.85;;;4.85;;
33593;SDS011;19920;52.242;20.940;2023-11-22T01:42:23;8.30;;;4.50;;
33593;SDS011;19920;52.242;20.940;2023-11-22T01:44:50;9.88;;;4.38;;
33593;SDS011;19920;52.242;20.940;2023-11-22T01:47:16;6.07;;;3.55;;
33593;SDS011;19920;52.242;20.940;2023-11-22T01:49:42;7.32;;;3.55;;
33593;SDS011;19920;52.242;20.940;2023-11-22T01:52:08;6.40;;;3.50;;
33593;SDS011;19920;52.242;20.940;2023-11-22T01:54:34;6.20;;;3.40;;
33593;SDS011;19920;52.242;20.940;2023-11-22T01:57:00;4.97;;;3.05;;
33593;SDS011;19920;52.242;20.940;2023-11-22T01:59:27;7.85;;;3.17;;
33593;SDS011;19920;52.242;20.940;2023-11-22T02:01:54;5.13;;;3.13;;
33593;SDS011;19920;52.242;20.940;2023-11-22T02:04:20;6.47;;;3.00;;
33593;SDS011;19920;52.242;20.940;2023-11-22T02:06:46;5.30;;;2.97;;
33593;SDS011;19920;52.242;20.940;2023-11-22T02:09:11;5.78;;;3.20;;
33593;SDS011;19920;52.242;20.940;2023-11-22T02:11:41;5.82;;;3.17;;
33593;SDS011;19920;52.242;20.940;2023-11-22T02:14:14;5.30;;;2.88;;
33593;SDS011;19920;52.242;20.940;2023-11-22T02:16:40;7.28;;;3.10;;
33593;SDS011;19920;52.242;20.940;2023-11-22T02:19:06;5.38;;;3.05;;
33593;SDS011;19920;52.242;20.940;2023-11-22T02:21:39;8.02;;;2.80;;
33593;SDS011;19920;52.242;20.940;2023-11-22T02:24:05;5.45;;;2.95;;
33593;SDS011;19920;52.242;20.940;2023-11-22T02:26:32;6.85;;;3.22;;
33593;SDS011;19920;52.242;20.940;2023-11-22T02:28:58;4.85;;;3.13;;
33593;SDS011;19920;52.242;20.940;2023-11-22T02:31:24;5.97;;;3.38;;
33593;SDS011;19920;52.242;20.940;2023-11-22T02:33:51;5.88;;;4.13;;
33593;SDS011;19920;52.242;20.940;2023-11-22T02:36:16;6.55;;;4.50;;
33593;SDS011;19920;52.242;20.940;2023-11-22T02:38:42;8.48;;;5.28;;
33593;SDS011;19920;52.242;20.940;2023-11-22T02:41:09;8.10;;;4.82;;
33593;SDS011;19920;52.242;20.940;2023-11-22T02:43:35;9.50;;;5.15;;
33593;SDS011;19920;52.242;20.940;2023-11-22T02:46:01;6.43;;;4.45;;
33593;SDS011;19920;52.242;20.940;2023-11-22T02:48:26;7.00;;;4.18;;
33593;SDS011;19920;52.242;20.940;2023-11-22T02:50:52;7.03;;;4.10;;
33593;SDS011;19920;52.242;20.940;2023-11-22T02:53:19;6.95;;;3.63;;
33593;SDS011;19920;52.242;20.940;2023-11-22T02:55:44;6.53;;;3.90;;
33593;SDS011;19920;52.242;20.940;2023-11-22T02:58:10;6.85;;;3.63;;
33593;SDS011;19920;52.242;20.940;2023-11-22T03:00:37;6.60;;;3.85;;
33593;SDS011;19920;52.242;20.940;2023-11-22T03:03:06;7.00;;;4.13;;
33593;SDS011;19920;52.242;20.940;2023-11-22T03:05:35;5.75;;;3.80;;
33593;SDS011;19920;52.242;20.940;2023-11-22T03:10:32;5.35;;;3.78;;
33593;SDS011;19920;52.242;20.940;2023-11-22T03:12:58;7.65;;;4.35;;
33593;SDS011;19920;52.242;20.940;2023-11-22T03:15:23;7.07;;;4.63;;
33593;SDS011;19920;52.242;20.940;2023-11-22T03:17:49;6.15;;;3.67;;
33593;SDS011;19920;52.242;20.940;2023-11-22T03:20:14;9.63;;;4.30;;
33593;SDS011;19920;52.242;20.940;2023-11-22T03:22:41;7.35;;;3.85;;
33593;SDS011;19920;52.242;20.940;2023-11-22T03:25:09;6.95;;;4.10;;
33593;SDS011;19920;52.242;20.940;2023-11-22T03:27:35;6.03;;;3.60;;
33593;SDS011;19920;52.242;20.940;2023-11-22T03:30:01;8.15;;;3.78;;
33593;SDS011;19920;52.242;20.940;2023-11-22T03:32:27;7.13;;;3.47;;
33593;SDS011;19920;52.242;20.940;2023-11-22T03:34:54;7.07;;;3.20;;
33593;SDS011;19920;52.242;20.940;2023-11-22T03:37:20;6.78;;;3.65;;
33593;SDS011;19920;52.242;20.940;2023-11-22T03:39:45;7.38;;;4.20;;
33593;SDS011;19920;52.242;20.940;2023-11-22T03:42:14;7.25;;;3.40;;
33593;SDS011;19920;52.242;20.940;2023-11-22T03:44:41;5.82;;;3.80;;
33593;SDS011;19920;52.242;20.940;2023-11-22T03:47:06;6.88;;;3.67;;
33593;SDS011;19920;52.242;20.940;2023-11-22T03:49:32;6.05;;;3.55;;
33593;SDS011;19920;52.242;20.940;2023-11-22T03:51:58;6.70;;;3.75;;
33593;SDS011;19920;52.242;20.940;2023-11-22T03:54:23;8.88;;;3.92;;
33593;SDS011;19920;52.242;20.940;2023-11-22T03:56:49;6.88;;;3.60;;
33593;SDS011;19920;52.242;20.940;2023-11-22T03:59:14;8.20;;;3.97;;
33593;SDS011;19920;52.242;20.940;2023-11-22T04:01:40;6.97;;;3.72;;
33593;SDS011;19920;52.242;20.940;2023-11-22T04:04:05;9.80;;;3.67;;
33593;SDS011;19920;52.242;20.940;2023-11-22T04:06:31;9.68;;;3.75;;
33593;SDS011;19920;52.242;20.940;2023-11-22T04:08:58;5.68;;;3.30;;
33593;SDS011;19920;52.242;20.940;2023-11-22T04:11:24;5.57;;;3.30;;
33593;SDS011;19920;52.242;20.940;2023-11-22T04:13:50;6.22;;;3.40;;
33593;SDS011;19920;52.242;20.940;2023-11-22T04:16:15;5.88;;;3.38;;
33593;SDS011;19920;52.242;20.940;2023-11-22T04:18:42;6.47;;;3.33;;
33593;SDS011;19920;52.242;20.940;2023-11-22T04:21:08;6.93;;;3.45;;
33593;SDS011;19920;52.242;20.940;2023-11-22T04:23:33;5.78;;;2.90;;
33593;SDS011;19920;52.242;20.940;2023-11-22T04:25:59;7.60;;;3.33;;
33593;SDS011;19920;52.242;20.940;2023-11-22T04:28:26;5.55;;;2.97;;
33593;SDS011;19920;52.242;20.940;2023-11-22T04:30:52;5.53;;;2.88;;
33593;SDS011;19920;52.242;20.940;2023-11-22T04:33:18;8.35;;;3.75;;
33593;SDS011;19920;52.242;20.940;2023-11-22T04:35:44;7.15;;;3.33;;
33593;SDS011;19920;52.242;20.940;2023-11-22T04:38:09;5.95;;;3.55;;
33593;SDS011;19920;52.242;20.940;2023-11-22T04:40:35;6.47;;;3.15;;
33593;SDS011;19920;52.242;20.940;2023-11-22T04:43:01;6.72;;;3.50;;
33593;SDS011;19920;52.242;20.940;2023-11-22T04:45:27;9.52;;;3.42;;
33593;SDS011;19920;52.242;20.940;2023-11-22T04:47:52;7.03;;;3.80;;
33593;SDS011;19920;52.242;20.940;2023-11-22T04:50:18;8.80;;;3.67;;
33593;SDS011;19920;52.242;20.940;2023-11-22T04:52:43;10.00;;;3.42;;
33593;SDS011;19920;52.242;20.940;2023-11-22T04:55:09;6.68;;;3.58;;
33593;SDS011;19920;52.242;20.940;2023-11-22T04:57:35;7.80;;;3.83;;
33593;SDS011;19920;52.242;20.940;2023-11-22T05:00:00;7.60;;;3.65;;
33593;SDS011;19920;52.242;20.940;2023-11-22T05:02:26;8.38;;;3.47;;
33593;SDS011;19920;52.242;20.940;2023-11-22T05:04:52;6.93;;;3.75;;
33593;SDS011;19920;52.242;20.940;2023-11-22T05:07:18;6.88;;;3.50;;
33593;SDS011;19920;52.242;20.940;2023-11-22T05:09:47;6.03;;;3.63;;
33593;SDS011;19920;52.242;20.940;2023-11-22T05:12:12;6.97;;;3.75;;
33593;SDS011;19920;52.242;20.940;2023-11-22T05:14:39;6.30;;;3.30;;
33593;SDS011;19920;52.242;20.940;2023-11-22T05:17:05;9.88;;;4.05;;
33593;SDS011;19920;52.242;20.940;2023-11-22T05:19:31;6.10;;;3.75;;
33593;SDS011;19920;52.242;20.940;2023-11-22T05:21:56;7.28;;;3.55;;
33593;SDS011;19920;52.242;20.940;2023-11-22T05:24:23;8.45;;;3.85;;
33593;SDS011;19920;52.242;20.940;2023-11-22T05:26:48;8.68;;;3.75;;
33593;SDS011;19920;52.242;20.940;2023-11-22T05:29:14;7.18;;;3.53;;
33593;SDS011;19920;52.242;20.940;2023-11-22T05:31:39;10.10;;;3.55;;
33593;SDS011;19920;52.242;20.940;2023-11-22T05:34:05;8.52;;;3.83;;
33593;SDS011;19920;52.242;20.940;2023-11-22T05:36:30;6.63;;;3.75;;
33593;SDS011;19920;52.242;20.940;2023-11-22T05:38:56;6.28;;;3.22;;
33593;SDS011;19920;52.242;20.940;2023-11-22T05:41:25;7.50;;;3.53;;
33593;SDS011;19920;52.242;20.940;2023-11-22T05:43:51;10.10;;;3.63;;
33593;SDS011;19920;52.242;20.940;2023-11-22T05:46:17;7.07;;;3.95;;
33593;SDS011;19920;52.242;20.940;2023-11-22T05:51:14;6.65;;;3.58;;
33593;SDS011;19920;52.242;20.940;2023-11-22T05:53:40;7.55;;;3.65;;
33593;SDS011;19920;52.242;20.940;2023-11-22T05:56:06;11.10;;;4.35;;
33593;SDS011;19920;52.242;20.940;2023-11-22T05:58:33;8.80;;;4.03;;
33593;SDS011;19920;52.242;20.940;2023-11-22T06:01:02;8.80;;;3.95;;
33593;SDS011;19920;52.242;20.940;2023-11-22T06:03:27;7.95;;;4.20;;
33593;SDS011;19920;52.242;20.940;2023-11-22T06:05:53;7.40;;;4.32;;
33593;SDS011;19920;52.242;20.940;2023-11-22T06:08:18;6.75;;;3.92;;
33593;SDS011;19920;52.242;20.940;2023-11-22T06:10:44;5.55;;;3.65;;
33593;SDS011;19920;52.242;20.940;2023-11-22T06:13:10;8.35;;;3.70;;
33593;SDS011;19920;52.242;20.940;2023-11-22T06:15:37;7.15;;;3.45;;
33593;SDS011;19920;52.242;20.940;2023-11-22T06:18:02;8.05;;;4.03;;
33593;SDS011;19920;52.242;20.940;2023-11-22T06:20:28;7.32;;;3.60;;
33593;SDS011;19920;52.242;20.940;2023-11-22T06:22:53;6.68;;;3.42;;
33593;SDS011;19920;52.242;20.940;2023-11-22T06:25:19;6.60;;;3.33;;
33593;SDS011;19920;52.242;20.940;2023-11-22T06:27:44;10.70;;;3.97;;
33593;SDS011;19920;52.242;20.940;2023-11-22T06:30:10;7.43;;;3.20;;
33593;SDS011;19920;52.242;20.940;2023-11-22T06:32:36;8.38;;;3.50;;
33593;SDS011;19920;52.242;20.940;2023-11-22T06:35:01;9.35;;;3.90;;
33593;SDS011;19920;52.242;20.940;2023-11-22T06:37:28;6.90;;;3.55;;
33593;SDS011;19920;52.242;20.940;2023-11-22T06:39:53;8.20;;;3.35;;
33593;SDS011;19920;52.242;20.940;2023-11-22T06:42:19;8.32;;;3.60;;
33593;SDS011;19920;52.242;20.940;2023-11-22T06:44:44;8.07;;;3.65;;
33593;SDS011;19920;52.242;20.940;2023-11-22T06:47:13;9.57;;;3.88;;
33593;SDS011;19920;52.242;20.940;2023-11-22T06:49:38;9.13;;;3.95;;
33593;SDS011;19920;52.242;20.940;2023-11-22T06:52:06;10.27;;;4.25;;
33593;SDS011;19920;52.242;20.940;2023-11-22T06:54:33;8.30;;;4.30;;
33593;SDS011;19920;52.242;20.940;2023-11-22T06:57:00;8.40;;;4.50;;
33593;SDS011;19920;52.242;20.940;2023-11-22T06:59:25;9.60;;;4.88;;
33593;SDS011;19920;52.242;20.940;2023-11-22T07:01:51;8.18;;;4.53;;
33593;SDS011;19920;52.242;20.940;2023-11-22T07:04:17;9.55;;;4.03;;
33593;SDS011;19920;52.242;20.940;2023-11-22T07:06:42;8.20;;;4.47;;
33593;SDS011;19920;52.242;20.940;2023-11-22T07:09:09;12.80;;;4.13;;
33593;SDS011;19920;52.242;20.940;2023-11-22T07:11:35;8.20;;;3.97;;
33593;SDS011;19920;52.242;20.940;2023-11-22T07:14:02;7.57;;;3.75;;
33593;SDS011;19920;52.242;20.940;2023-11-22T07:16:34;9.57;;;3.70;;
33593;SDS011;19920;52.242;20.940;2023-11-22T07:19:00;11.32;;;4.53;;
33593;SDS011;19920;52.242;20.940;2023-11-22T07:21:31;9.35;;;4.60;;
33593;SDS011;19920;52.242;20.940;2023-11-22T07:23:59;8.80;;;4.13;;
33593;SDS011;19920;52.242;20.940;2023-11-22T07:26:25;7.75;;;4.13;;
33593;SDS011;19920;52.242;20.940;2023-11-22T07:28:53;8.23;;;4.03;;
33593;SDS011;19920;52.242;20.940;2023-11-22T07:31:19;6.05;;;3.78;;
33593;SDS011;19920;52.242;20.940;2023-11-22T07:33:46;7.93;;;4.00;;
33593;SDS011;19920;52.242;20.940;2023-11-22T07:36:11;6.80;;;3.70;;
33593;SDS011;19920;52.242;20.940;2023-11-22T07:38:40;10.45;;;4.78;;
33593;SDS011;19920;52.242;20.940;2023-11-22T07:41:07;10.63;;;4.43;;
33593;SDS011;19920;52.242;20.940;2023-11-22T07:43:33;7.13;;;4.15;;
33593;SDS011;19920;52.242;20.940;2023-11-22T07:45:59;9.90;;;4.70;;
33593;SDS011;19920;52.242;20.940;2023-11-22T07:48:26;11.07;;;4.40;;
33593;SDS011;19920;52.242;20.940;2023-11-22T07:50:52;9.98;;;4.70;;
33593;SDS011;19920;52.242;20.940;2023-11-22T07:53:18;8.75;;;4.43;;
33593;SDS011;19920;52.242;20.940;2023-11-22T07:55:43;12.65;;;4.70;;
33593;SDS011;19920;52.242;20.940;2023-11-22T07:58:09;10.13;;;4.57;;
33593;SDS011;19920;52.242;20.940;2023-11-22T08:00:36;9.05;;;4.88;;
33593;SDS011;19920;52.242;20.940;2023-11-22T08:03:07;10.25;;;4.45;;
33593;SDS011;19920;52.242;20.940;2023-11-22T08:05:34;11.27;;;4.80;;
33593;SDS011;19920;52.242;20.940;2023-11-22T08:08:03;10.35;;;4.38;;
33593;SDS011;19920;52.242;20.940;2023-11-22T08:10:33;11.02;;;4.38;;
33593;SDS011;19920;52.242;20.940;2023-11-22T08:13:02;12.02;;;4.65;;
33593;SDS011;19920;52.242;20.940;2023-11-22T08:15:28;7.68;;;4.80;;
33593;SDS011;19920;52.242;20.940;2023-11-22T08:17:56;9.07;;;4.57;;
33593;SDS011;19920;52.242;20.940;2023-11-22T08:20:22;12.77;;;4.60;;
33593;SDS011;19920;52.242;20.940;2023-11-22T08:22:48;7.28;;;4.22;;
33593;SDS011;19920;52.242;20.940;2023-11-22T08:25:16;8.35;;;4.90;;
33593;SDS011;19920;52.242;20.940;2023-11-22T08:27:42;11.05;;;4.80;;
33593;SDS011;19920;52.242;20.940;2023-11-22T08:30:08;10.82;;;4.65;;
33593;SDS011;19920;52.242;20.940;2023-11-22T08:32:43;7.03;;;4.10;;
33593;SDS011;19920;52.242;20.940;2023-11-22T08:35:12;10.43;;;4.78;;
33593;SDS011;19920;52.242;20.940;2023-11-22T08:37:39;10.32;;;4.85;;
33593;SDS011;19920;52.242;20.940;2023-11-22T08:40:07;10.05;;;4.70;;
33593;SDS011;19920;52.242;20.940;2023-11-22T08:45:02;18.50;;;5.13;;
33593;SDS011;19920;52.242;20.940;2023-11-22T08:47:28;13.10;;;5.00;;
33593;SDS011;19920;52.242;20.940;2023-11-22T08:49:54;8.88;;;5.03;;
33593;SDS011;19920;52.242;20.940;2023-11-22T08:52:21;11.45;;;5.43;;
33593;SDS011;19920;52.242;20.940;2023-11-22T08:54:48;11.07;;;5.60;;
33593;SDS011;19920;52.242;20.940;2023-11-22T08:57:14;10.20;;;5.93;;
33593;SDS011;19920;52.242;20.940;2023-11-22T08:59:40;8.82;;;5.32;;
33593;SDS011;19920;52.242;20.940;2023-11-22T09:02:06;10.93;;;6.32;;
33593;SDS011;19920;52.242;20.940;2023-11-22T09:04:37;11.88;;;6.32;;
33593;SDS011;19920;52.242;20.940;2023-11-22T09:07:03;10.38;;;5.53;;
33593;SDS011;19920;52.242;20.940;2023-11-22T09:09:30;15.60;;;5.82;;
33593;SDS011;19920;52.242;20.940;2023-11-22T09:11:56;15.80;;;5.93;;
33593;SDS011;19920;52.242;20.940;2023-11-22T09:14:23;11.60;;;5.60;;
33593;SDS011;19920;52.242;20.940;2023-11-22T09:16:49;17.35;;;6.00;;
33593;SDS011;19920;52.242;20.940;2023-11-22T09:19:20;11.23;;;5.45;;
33593;SDS011;19920;52.242;20.940;2023-11-22T09:21:49;11.35;;;5.63;;
33593;SDS011;19920;52.242;20.940;2023-11-22T09:24:15;9.40;;;5.65;;
33593;SDS011;19920;52.242;20.940;2023-11-22T09:26:40;11.05;;;5.88;;
33593;SDS011;19920;52.242;20.940;2023-11-22T09:29:07;12.18;;;5.60;;
33593;SDS011;19920;52.242;20.940;2023-11-22T09:31:33;10.82;;;6.18;;
33593;SDS011;19920;52.242;20.940;2023-11-22T09:34:00;18.25;;;6.13;;
33593;SDS011;19920;52.242;20.940;2023-11-22T09:36:26;11.18;;;5.40;;
33593;SDS011;19920;52.242;20.940;2023-11-22T09:38:52;12.10;;;6.20;;
33593;SDS011;19920;52.242;20.940;2023-11-22T09:41:18;9.80;;;5.95;;
33593;SDS011;19920;52.242;20.940;2023-11-22T09:43:44;15.13;;;6.38;;
33593;SDS011;19920;52.242;20.940;2023-11-22T09:46:15;13.35;;;6.70;;
33593;SDS011;19920;52.242;20.940;2023-11-22T09:48:44;16.33;;;6.55;;
33593;SDS011;19920;52.242;20.940;2023-11-22T09:51:26;13.05;;;6.63;;
33593;SDS011;19920;52.242;20.940;2023-11-22T09:53:57;10.93;;;5.38;;
33593;SDS011;19920;52.242;20.940;2023-11-22T09:56:25;9.98;;;5.35;;
33593;SDS011;19920;52.242;20.940;2023-11-22T09:58:52;15.73;;;6.13;;
33593;SDS011;19920;52.242;20.940;2023-11-22T10:01:20;9.18;;;5.32;;
33593;SDS011;19920;52.242;20.940;2023-11-22T10:03:47;9.95;;;5.13;;
33593;SDS011;19920;52.242;20.940;2023-11-22T10:06:13;10.95;;;4.30;;
33593;SDS011;19920;52.242;20.940;2023-11-22T10:08:40;8.50;;;4.18;;
33593;SDS011;19920;52.242;20.940;2023-11-22T10:11:06;8.30;;;4.43;;
33593;SDS011;19920;52.242;20.940;2023-11-22T10:13:32;10.70;;;5.57;;
33593;SDS011;19920;52.242;20.940;2023-11-22T10:16:12;10.38;;;5.05;;
33593;SDS011;19920;52.242;20.940;2023-11-22T10:18:44;9.05;;;5.47;;
33593;SDS011;19920;52.242;20.940;2023-11-22T10:21:20;17.13;;;6.55;;
33593;SDS011;19920;52.242;20.940;2023-11-22T10:23:46;11.05;;;5.95;;
33593;SDS011;19920;52.242;20.940;2023-11-22T10:26:12;10.70;;;5.75;;
33593;SDS011;19920;52.242;20.940;2023-11-22T10:28:41;11.45;;;6.13;;
33593;SDS011;19920;52.242;20.940;2023-11-22T10:31:08;14.90;;;7.22;;
33593;SDS011;19920;52.242;20.940;2023-11-22T10:33:34;21.15;;;11.50;;
33593;SDS011;19920;52.242;20.940;2023-11-22T10:36:07;12.88;;;6.88;;
33593;SDS011;19920;52.242;20.940;2023-11-22T10:38:33;13.13;;;7.43;;
33593;SDS011;19920;52.242;20.940;2023-11-22T10:40:59;13.77;;;7.78;;
33593;SDS011;19920;52.242;20.940;2023-11-22T10:43:27;17.35;;;7.43;;
33593;SDS011;19920;52.242;20.940;2023-11-22T10:45:57;12.15;;;7.28;;
33593;SDS011;19920;52.242;20.940;2023-11-22T10:48:24;12.75;;;6.85;;
33593;SDS011;19920;52.242;20.940;2023-11-22T10:50:50;12.90;;;7.45;;
33593;SDS011;19920;52.242;20.940;2023-11-22T10:53:24;15.77;;;7.35;;
33593;SDS011;19920;52.242;20.940;2023-11-22T10:56:12;13.02;;;7.20;;
33593;SDS011;19920;52.242;20.940;2023-11-22T10:58:45;13.82;;;7.30;;
33593;SDS011;19920;52.242;20.940;2023-11-22T11:01:13;15.02;;;7.60;;
33593;SDS011;19920;52.242;20.940;2023-11-22T11:03:45;12.43;;;6.93;;
33593;SDS011;19920;52.242;20.940;2023-11-22T11:06:20;15.00;;;6.95;;
33593;SDS011;19920;52.242;20.940;2023-11-22T11:08:54;13.65;;;6.80;;
33593;SDS011;19920;52.242;20.940;2023-11-22T11:11:22;11.93;;;6.30;;
33593;SDS011;19920;52.242;20.940;2023-11-22T11:13:49;15.13;;;7.38;;
33593;SDS011;19920;52.242;20.940;2023-11-22T11:16:15;15.20;;;6.70;;
33593;SDS011;19920;52.242;20.940;2023-11-22T11:18:41;12.00;;;7.10;;
33593;SDS011;19920;52.242;20.940;2023-11-22T11:21:08;15.45;;;7.10;;
33593;SDS011;19920;52.242;20.940;2023-11-22T11:23:38;13.18;;;7.22;;
33593;SDS011;19920;52.242;20.940;2023-11-22T11:26:19;13.00;;;7.15;;
33593;SDS011;19920;52.242;20.940;2023-11-22T11:28:51;15.73;;;7.13;;
33593;SDS011;19920;52.242;20.940;2023-11-22T11:31:20;13.32;;;7.22;;
33593;SDS011;19920;52.242;20.940;2023-11-22T11:36:29;14.75;;;7.55;;
33593;SDS011;19920;52.242;20.940;2023-11-22T11:41:26;12.35;;;6.38;;
33593;SDS011;19920;52.242;20.940;2023-11-22T11:43:53;16.05;;;6.95;;
33593;SDS011;19920;52.242;20.940;2023-11-22T11:46:21;16.50;;;9.13;;
33593;SDS011;19920;52.242;20.940;2023-11-22T11:48:53;14.75;;;7.03;;
33593;SDS011;19920;52.242;20.940;2023-11-22T11:51:24;12.00;;;6.45;;
33593;SDS011;19920;52.242;20.940;2023-11-22T11:53:51;10.75;;;6.68;;
33593;SDS011;19920;52.242;20.940;2023-11-22T11:56:18;12.10;;;6.53;;
33593;SDS011;19920;52.242;20.940;2023-11-22T11:58:44;10.80;;;6.32;;
33593;SDS011;19920;52.242;20.940;2023-11-22T12:01:14;15.70;;;6.53;;
33593;SDS011;19920;52.242;20.940;2023-11-22T12:03:46;10.82;;;6.32;;
33593;SDS011;19920;52.242;20.940;2023-11-22T12:06:15;11.02;;;6.32;;
33593;SDS011;19920;52.242;20.940;2023-11-22T12:11:08;13.48;;;6.45;;
33593;SDS011;19920;52.242;20.940;2023-11-22T12:13:35;12.48;;;6.82;;
33593;SDS011;19920;52.242;20.940;2023-11-22T12:16:03;10.75;;;6.63;;
33593;SDS011;19920;52.242;20.940;2023-11-22T12:18:49;13.02;;;6.90;;
33593;SDS011;19920;52.242;20.940;2023-11-22T12:21:16;10.88;;;6.45;;
33593;SDS011;19920;52.242;20.940;2023-11-22T12:23:43;12.13;;;6.30;;
33593;SDS011;19920;52.242;20.940;2023-11-22T12:26:14;14.88;;;6.88;;
33593;SDS011;19920;52.242;20.940;2023-11-22T12:28:41;16.20;;;6.68;;
33593;SDS011;19920;52.242;20.940;2023-11-22T12:31:10;12.98;;;6.90;;
33593;SDS011;19920;52.242;20.940;2023-11-22T12:33:40;19.02;;;7.40;;
33593;SDS011;19920;52.242;20.940;2023-11-22T12:36:07;12.75;;;6.95;;
33593;SDS011;19920;52.242;20.940;2023-11-22T12:38:40;14.73;;;7.38;;
33593;SDS011;19920;52.242;20.940;2023-11-22T12:41:06;14.55;;;7.93;;
33593;SDS011;19920;52.242;20.940;2023-11-22T12:43:32;14.02;;;7.00;;
33593;SDS011;19920;52.242;20.940;2023-11-22T12:46:02;12.60;;;6.55;;
33593;SDS011;19920;52.242;20.940;2023-11-22T12:48:32;13.95;;;7.50;;
33593;SDS011;19920;52.242;20.940;2023-11-22T12:50:58;11.27;;;5.85;;
33593;SDS011;19920;52.242;20.940;2023-11-22T12:53:25;11.07;;;6.75;;
33593;SDS011;19920;52.242;20.940;2023-11-22T12:55:53;13.77;;;7.15;;
33593;SDS011;19920;52.242;20.940;2023-11-22T12:58:24;11.15;;;6.78;;
33593;SDS011;19920;52.242;20.940;2023-11-22T13:00:52;15.10;;;7.32;;
33593;SDS011;19920;52.242;20.940;2023-11-22T13:03:23;15.77;;;6.70;;
33593;SDS011;19920;52.242;20.940;2023-11-22T13:05:50;13.50;;;7.43;;
33593;SDS011;19920;52.242;20.940;2023-11-22T13:08:17;11.65;;;6.75;;
33593;SDS011;19920;52.242;20.940;2023-11-22T13:10:43;14.05;;;6.90;;
33593;SDS011;19920;52.242;20.940;2023-11-22T13:13:11;14.95;;;7.30;;
33593;SDS011;19920;52.242;20.940;2023-11-22T13:15:37;12.88;;;7.28;;
33593;SDS011;19920;52.242;20.940;2023-11-22T13:18:03;14.60;;;7.15;;
33593;SDS011;19920;52.242;20.940;2023-11-22T13:20:31;13.07;;;6.13;;
33593;SDS011;19920;52.242;20.940;2023-11-22T13:22:57;10.57;;;6.32;;
33593;SDS011;19920;52.242;20.940;2023-11-22T13:25:25;11.73;;;6.10;;
33593;SDS011;19920;52.242;20.940;2023-11-22T13:27:50;11.52;;;5.85;;
33593;SDS011;19920;52.242;20.940;2023-11-22T13:30:18;10.57;;;6.15;;
33593;SDS011;19920;52.242;20.940;2023-11-22T13:32:54;14.20;;;6.45;;
33593;SDS011;19920;52.242;20.940;2023-11-22T13:35:26;11.43;;;6.25;;
33593;SDS011;19920;52.242;20.940;2023-11-22T13:37:56;10.90;;;5.57;;
33593;SDS011;19920;52.242;20.940;2023-11-22T13:40:26;13.52;;;6.57;;
33593;SDS011;19920;52.242;20.940;2023-11-22T13:42:55;14.30;;;6.10;;
33593;SDS011;19920;52.242;20.940;2023-11-22T13:45:22;12.57;;;6.05;;
33593;SDS011;19920;52.242;20.940;2023-11-22T13:47:49;10.50;;;5.97;;
33593;SDS011;19920;52.242;20.940;2023-11-22T13:50:17;11.75;;;5.43;;
33593;SDS011;19920;52.242;20.940;2023-11-22T13:52:51;11.68;;;5.75;;
33593;SDS011;19920;52.242;20.940;2023-11-22T13:55:18;11.68;;;6.30;;
33593;SDS011;19920;52.242;20.940;2023-11-22T13:57:54;12.30;;;6.13;;
33593;SDS011;19920;52.242;20.940;2023-11-22T14:00:21;12.55;;;6.50;;
33593;SDS011;19920;52.242;20.940;2023-11-22T14:02:49;12.10;;;6.10;;
33593;SDS011;19920;52.242;20.940;2023-11-22T14:05:16;13.90;;;5.97;;
33593;SDS011;19920;52.242;20.940;2023-11-22T14:07:42;17.08;;;6.63;;
33593;SDS011;19920;52.242;20.940;2023-11-22T14:10:09;15.68;;;6.90;;
33593;SDS011;19920;52.242;20.940;2023-11-22T14:12:36;16.35;;;7.20;;
33593;SDS011;19920;52.242;20.940;2023-11-22T14:15:02;12.75;;;6.38;;
33593;SDS011;19920;52.242;20.940;2023-11-22T14:17:30;14.30;;;6.57;;
33593;SDS011;19920;52.242;20.940;2023-11-22T14:19:56;13.48;;;6.03;;
33593;SDS011;19920;52.242;20.940;2023-11-22T14:22:22;15.00;;;7.00;;
33593;SDS011;19920;52.242;20.940;2023-11-22T14:24:51;19.20;;;8.82;;
33593;SDS011;19920;52.242;20.940;2023-11-22T14:27:17;17.75;;;8.55;;
33593;SDS011;19920;52.242;20.940;2023-11-22T14:29:44;16.65;;;7.07;;
33593;SDS011;19920;52.242;20.940;2023-11-22T14:32:13;13.60;;;7.50;;
33593;SDS011;19920;52.242;20.940;2023-11-22T14:34:39;15.98;;;6.60;;
33593;SDS011;19920;52.242;20.940;2023-11-22T14:37:05;12.18;;;6.70;;
33593;SDS011;19920;52.242;20.940;2023-11-22T14:39:31;11.57;;;6.18;;
33593;SDS011;19920;52.242;20.940;2023-11-22T14:41:58;11.88;;;6.07;;